< Cyclone 197216 1972 Season Cyclone 197218 >
Cyclone 197217 (FAITH)
General InformationTrack Information on Google Maps || ResourceGoogle EarthGE AnimationAtom FeedGeoJSON
Detalied Best Track (Time Zone = UTC)
Year Month Day Hour Lat. Long. Pressure (hPa) Wind (kt) Class Image Chart
1972 4 10 17 -10.9 139.5 1004 0 0 -- --
1972 4 10 20 -10.8 139.6 1004 0 0 -- --
1972 4 10 23 -10.8 139.7 1004 0 0 -- --
1972 4 11 02 -10.8 139.8 1002 0 0 -- --
1972 4 11 05 -10.9 139.9 1002 0 0 -- --
1972 4 11 08 -10.9 140.0 1002 0 0 -- --
1972 4 11 11 -11.0 140.0 1003 0 0 -- --
1972 4 11 14 -11.0 140.1 1003 0 0 -- --
1972 4 11 17 -11.1 140.1 1002 0 0 -- --
1972 4 11 20 -11.2 140.2 1002 0 0 -- --
1972 4 11 23 -11.4 140.3 997 0 0 -- --
1972 4 12 02 -11.5 140.4 992 0 0 -- --
1972 4 12 05 -11.6 140.5 990 0 0 -- --
1972 4 12 08 -11.8 140.6 992 0 0 -- --
1972 4 12 11 -12.0 140.7 992 0 0 -- --
1972 4 12 14 -12.1 140.9 992 0 0 -- --
1972 4 12 17 -12.2 141.1 990 0 0 -- --
1972 4 12 20 -12.4 141.2 990 0 0 -- --
1972 4 12 23 -12.6 141.3 992 0 0 -- --
1972 4 13 02 -12.7 141.5 995 0 0 -- --
1972 4 13 05 -12.8 141.7 997 0 0 -- --
1972 4 13 08 -12.9 141.8 998 0 0 -- --
1972 4 13 11 -12.9 142.0 1000 0 0 -- --
1972 4 13 14 -12.9 142.3 1002 0 0 -- --
1972 4 13 17 -12.9 142.8 1002 0 0 -- --
1972 4 13 20 -12.9 143.3 1002 0 0 -- --
1972 4 13 23 -12.9 143.7 1002 0 0 -- --
1972 4 14 02 -12.9 144.1 1001 0 0 -- --
1972 4 14 05 -13.0 144.5 997 0 0 -- --
1972 4 14 08 -13.1 144.4 992 0 0 -- --
1972 4 14 11 -13.2 145.3 992 0 0 -- --
1972 4 14 14 -13.3 145.7 992 0 0 -- --
1972 4 14 17 -13.4 146.1 992 0 0 -- --
1972 4 14 20 -13.5 147.6 992 0 0 -- --
1972 4 14 23 -13.6 147.2 992 0 0 -- --
1972 4 15 02 -13.7 147.7 992 0 0 -- --
1972 4 15 05 -13.8 148.2 990 0 0 -- --
1972 4 15 08 -13.9 148.6 990 0 0 -- --
1972 4 15 11 -14.0 149.0 990 0 0 -- --
1972 4 15 14 -14.0 149.3 990 0 0 -- --
1972 4 15 17 -14.0 149.6 990 0 0 -- --
1972 4 15 20 -14.1 149.8 990 0 0 -- --
1972 4 15 23 -14.1 150.0 992 0 0 -- --
1972 4 16 02 -14.1 150.2 990 0 0 -- --
1972 4 16 05 -14.1 150.4 990 0 0 -- --
1972 4 16 08 -14.0 150.6 990 0 0 -- --
1972 4 16 11 -14.0 150.8 992 0 0 -- --
1972 4 16 14 -13.9 151.0 994 0 0 -- --
1972 4 16 17 -13.8 151.2 994 0 0 -- --
1972 4 16 20 -13.6 151.4 994 0 0 -- --
1972 4 16 23 -13.3 151.6 994 0 0 -- --
1972 4 17 02 -13.0 151.8 994 0 0 -- --
1972 4 17 05 -12.7 151.9 994 0 0 -- --
1972 4 17 08 -12.4 152.0 994 0 0 -- --
1972 4 17 11 -12.1 152.3 994 0 0 -- --
1972 4 17 14 -11.9 152.1 994 0 0 -- --
1972 4 17 17 -11.7 152.1 994 0 0 -- --
1972 4 17 20 -11.6 152.0 994 0 0 -- --
1972 4 17 23 -11.5 151.9 994 0 0 -- --
1972 4 18 02 -11.4 151.7 994 0 0 -- --
1972 4 18 05 -11.4 151.5 994 0 0 -- --
1972 4 18 08 -11.3 151.3 994 0 0 -- --
1972 4 18 11 -11.3 151.0 994 0 0 -- --
1972 4 18 14 -11.4 150.7 994 0 0 -- --
1972 4 18 17 -11.4 150.5 994 0 0 -- --
1972 4 18 20 -11.4 150.3 994 0 0 -- --
1972 4 18 23 -11.4 150.1 994 0 0 -- --
1972 4 19 02 -11.4 149.9 992 0 0 -- --
1972 4 19 05 -11.5 149.7 990 0 0 -- --
1972 4 19 08 -11.5 149.5 990 0 0 -- --
1972 4 19 11 -11.5 149.3 992 0 0 -- --
1972 4 19 14 -11.5 149.1 990 0 0 -- --
1972 4 19 17 -11.5 148.9 990 0 0 -- --
1972 4 19 20 -11.6 148.7 990 0 0 -- --
1972 4 19 23 -11.6 148.5 992 0 0 -- --
1972 4 20 02 -11.6 148.3 992 0 0 -- --
1972 4 20 05 -11.6 148.1 990 0 0 -- --
1972 4 20 08 -11.6 147.9 990 0 0 -- --
1972 4 20 11 -11.6 147.7 992 0 0 -- --
1972 4 20 14 -11.6 147.5 990 0 0 -- --
1972 4 20 17 -11.6 147.3 990 0 0 -- --
1972 4 20 20 -11.6 147.2 992 0 0 -- --
1972 4 20 23 -11.6 147.0 994 0 0 -- --
1972 4 21 02 -11.5 146.7 996 0 0 -- --
1972 4 21 05 -11.3 146.4 996 0 0 -- --
1972 4 21 08 -11.1 146.1 996 0 0 -- --
1972 4 21 11 -10.9 145.8 998 0 0 -- --
1972 4 21 14 -10.7 145.5 1000 0 0 -- --
1972 4 21 17 -10.5 145.2 1000 0 0 -- --
1972 4 21 20 -10.3 144.9 1000 0 0 -- --
1972 4 21 23 -10.1 144.6 1002 0 0 -- --
1972 4 22 02 -9.9 144.3 1000 0 0 -- --
1972 4 22 05 -9.7 144.0 998 0 0 -- --
1972 4 22 08 -9.6 143.7 1000 0 0 -- --
1972 4 22 11 -9.6 143.4 1000 0 0 -- --
1972 4 22 14 -9.6 143.1 1000 0 0 -- --
1972 4 22 17 -9.5 142.6 1000 0 0 -- --
1972 4 22 20 -9.5 142.7 999 0 0 -- --
1972 4 22 23 -9.5 142.5 998 0 0 -- --
1972 4 23 02 -9.5 142.2 997 0 0 -- --
1972 4 23 05 -9.5 141.9 997 0 0 -- --
1972 4 23 08 -9.5 141.6 999 0 0 -- --
1972 4 23 11 -9.5 141.3 1001 0 0 -- --
1972 4 23 14 -9.5 141.0 1000 0 0 -- --
1972 4 23 17 -9.5 140.7 1002 0 0 -- --
1972 4 23 20 -9.5 140.4 1003 0 0 -- --
1972 4 23 23 -9.5 140.1 1005 0 0 -- --
1972 4 24 02 -9.5 139.8 1007 0 0 -- --
1972 4 24 05 -9.5 139.5 1005 0 0 -- --
< Cyclone 197216 1972 Season Cyclone 197218 >

Help